createdAt,value
2023-03-05T00:02:24.194Z,31.47
2023-03-05T00:04:51.993Z,30.57
2023-03-05T00:07:19.789Z,34.87
2023-03-05T00:12:19.288Z,32.37
2023-03-05T00:14:47.061Z,33.27
2023-03-05T00:17:14.845Z,28.53
2023-03-05T00:19:43.960Z,36.30
2023-03-05T00:22:11.758Z,32.40
2023-03-05T00:24:39.636Z,30.00
2023-03-05T00:27:07.510Z,32.27
2023-03-05T00:29:35.298Z,32.63
2023-03-05T00:32:03.207Z,33.03
2023-03-05T00:34:31.670Z,28.63
2023-03-05T00:37:00.797Z,42.47
2023-03-05T00:39:29.040Z,30.30
2023-03-05T00:41:56.837Z,32.73
2023-03-05T00:44:25.262Z,30.93
2023-03-05T00:46:53.147Z,30.60
2023-03-05T00:49:21.234Z,26.47
2023-03-05T00:51:49.068Z,35.43
2023-03-05T00:54:18.356Z,31.63
2023-03-05T00:56:47.377Z,37.40
2023-03-05T00:59:15.207Z,29.53
2023-03-05T01:01:43.070Z,33.10
2023-03-05T01:04:10.922Z,37.17
2023-03-05T01:06:42.704Z,34.07
2023-03-05T01:09:10.546Z,31.40
2023-03-05T01:11:39.691Z,26.33
2023-03-05T01:14:07.548Z,36.03
2023-03-05T01:16:35.428Z,38.33
2023-03-05T01:19:03.228Z,37.30
2023-03-05T01:21:31.368Z,35.53
2023-03-05T01:23:59.245Z,38.80
2023-03-05T01:26:27.061Z,35.87
2023-03-05T01:28:56.260Z,36.77
2023-03-05T01:31:24.257Z,34.03
2023-03-05T01:33:53.209Z,36.07
2023-03-05T01:36:25.082Z,33.20
2023-03-05T01:38:53.545Z,28.27
2023-03-05T01:41:22.024Z,32.13
2023-03-05T01:43:52.864Z,40.17
2023-03-05T01:46:31.693Z,38.47
2023-03-05T01:49:05.046Z,31.47
2023-03-05T01:51:39.078Z,38.83
2023-03-05T01:54:08.330Z,31.43
2023-03-05T01:56:36.896Z,33.60
2023-03-05T01:59:05.024Z,31.50
2023-03-05T02:01:40.414Z,34.20
2023-03-05T02:04:09.960Z,35.77
2023-03-05T02:06:38.907Z,35.17
2023-03-05T02:09:06.770Z,35.63
2023-03-05T02:11:35.342Z,37.87
2023-03-05T02:14:04.250Z,35.50
2023-03-05T02:16:36.766Z,34.17
2023-03-05T02:19:08.534Z,36.27
2023-03-05T02:21:43.618Z,35.17
2023-03-05T02:24:13.689Z,33.83
2023-03-05T02:26:43.181Z,36.87
2023-03-05T02:29:14.110Z,34.00
2023-03-05T02:31:42.028Z,30.07
2023-03-05T02:34:09.880Z,30.90
2023-03-05T02:36:37.673Z,37.70
2023-03-05T02:39:07.352Z,38.40
2023-03-05T02:41:35.136Z,31.53
2023-03-05T02:44:02.994Z,34.27
2023-03-05T02:46:30.826Z,31.90
2023-03-05T02:48:58.617Z,29.40
2023-03-05T02:51:26.417Z,33.63
2023-03-05T02:53:54.252Z,35.20
2023-03-05T02:56:23.454Z,31.17
2023-03-05T02:58:51.268Z,31.97
2023-03-05T03:01:19.102Z,32.37
2023-03-05T03:03:46.963Z,32.93
2023-03-05T03:06:14.777Z,31.60
2023-03-05T03:08:42.594Z,30.27
2023-03-05T03:11:12.530Z,33.57
2023-03-05T03:13:41.809Z,35.13
2023-03-05T03:16:13.046Z,38.00
2023-03-05T03:18:41.028Z,30.13
2023-03-05T03:21:08.881Z,33.13
2023-03-05T03:23:36.695Z,31.33
2023-03-05T03:26:04.549Z,31.83
2023-03-05T03:28:32.466Z,33.87
2023-03-05T03:31:01.673Z,34.30
2023-03-05T03:33:29.496Z,28.53
2023-03-05T03:35:57.304Z,29.93
2023-03-05T03:38:25.141Z,31.00
2023-03-05T03:40:52.957Z,34.03
2023-03-05T03:43:20.804Z,32.67
2023-03-05T03:45:48.742Z,34.53
2023-03-05T03:48:18.014Z,30.87
2023-03-05T03:50:45.888Z,34.97
2023-03-05T03:53:14.391Z,34.67
2023-03-05T03:55:43.941Z,31.20
2023-03-05T03:58:12.069Z,30.83
2023-03-05T04:00:41.563Z,36.70
2023-03-05T04:03:09.781Z,31.00
2023-03-05T04:05:38.928Z,31.90
2023-03-05T04:08:11.886Z,31.70
2023-03-05T04:10:39.927Z,36.23
2023-03-05T04:13:08.192Z,29.47
2023-03-05T04:15:36.211Z,34.53
2023-03-05T04:18:04.018Z,34.73
2023-03-05T04:20:31.835Z,33.57
2023-03-05T04:23:00.999Z,30.33
2023-03-05T04:25:28.796Z,28.90
2023-03-05T04:27:56.635Z,32.73
2023-03-05T04:30:24.443Z,34.47
2023-03-05T04:32:52.235Z,39.53
2023-03-05T04:35:20.192Z,37.20
2023-03-05T04:37:48.285Z,29.23
2023-03-05T04:40:18.512Z,33.13
2023-03-05T04:42:46.461Z,34.47
2023-03-05T04:45:14.349Z,30.77
2023-03-05T04:47:42.135Z,26.53
2023-03-05T04:50:12.107Z,26.30
2023-03-05T04:52:40.905Z,30.70
2023-03-05T04:55:09.951Z,27.57
2023-03-05T04:57:39.773Z,26.33
2023-03-05T05:00:14.060Z,24.53
2023-03-05T05:02:42.483Z,22.70
2023-03-05T05:05:11.642Z,27.47
2023-03-05T05:07:39.501Z,22.17
2023-03-05T05:10:08.274Z,24.53
2023-03-05T05:12:36.329Z,25.33
2023-03-05T05:15:07.971Z,17.70
2023-03-05T05:17:36.498Z,22.03
2023-03-05T05:20:06.509Z,19.70
2023-03-05T05:22:35.687Z,20.53
2023-03-05T05:25:04.205Z,20.70
2023-03-05T05:27:32.044Z,19.80
2023-03-05T05:29:59.984Z,20.53
2023-03-05T05:32:29.592Z,25.17
2023-03-05T05:34:57.982Z,22.30
2023-03-05T05:37:26.938Z,22.00
2023-03-05T05:39:54.774Z,21.33
2023-03-05T05:42:25.640Z,27.40
2023-03-05T05:44:55.389Z,28.07
2023-03-05T05:47:23.285Z,21.27
2023-03-05T05:49:52.440Z,24.87
2023-03-05T05:52:20.254Z,26.27
2023-03-05T05:54:48.231Z,22.03
2023-03-05T05:57:16.806Z,21.53
2023-03-05T05:59:44.650Z,22.57
2023-03-05T06:02:12.710Z,23.63
2023-03-05T06:04:40.715Z,22.57
2023-03-05T06:07:09.840Z,24.17
2023-03-05T06:09:37.786Z,23.17
2023-03-05T06:12:06.655Z,23.97
2023-03-05T06:14:34.526Z,26.73
2023-03-05T06:17:02.314Z,28.00
2023-03-05T06:19:30.134Z,24.97
2023-03-05T06:21:58.258Z,25.77
2023-03-05T06:24:27.537Z,27.30
2023-03-05T06:26:55.339Z,27.00
2023-03-05T06:29:23.154Z,26.13
2023-03-05T06:31:50.940Z,26.60
2023-03-05T06:34:18.757Z,20.40
2023-03-05T06:36:46.562Z,23.13
2023-03-05T06:39:14.426Z,22.00
2023-03-05T06:41:44.608Z,24.93
2023-03-05T06:44:12.524Z,26.27
2023-03-05T06:46:40.640Z,25.87
2023-03-05T06:49:09.503Z,28.23
2023-03-05T06:51:38.988Z,25.23
2023-03-05T06:54:08.733Z,23.63
2023-03-05T06:56:38.404Z,23.43
2023-03-05T06:59:08.102Z,25.43
2023-03-05T07:01:36.190Z,20.00
2023-03-05T07:04:04.400Z,24.93
2023-03-05T07:06:34.843Z,23.23
2023-03-05T07:09:04.009Z,18.33
2023-03-05T07:11:32.623Z,28.63
2023-03-05T07:14:00.658Z,25.50
2023-03-05T07:16:31.748Z,22.43
2023-03-05T07:19:03.911Z,21.40
2023-03-05T07:21:33.654Z,22.00
2023-03-05T07:24:03.286Z,21.23
2023-03-05T07:26:33.327Z,19.30
2023-03-05T07:29:02.095Z,23.43
2023-03-05T07:31:32.068Z,20.90
2023-03-05T07:34:01.786Z,23.73
2023-03-05T07:36:29.880Z,21.03
2023-03-05T07:38:59.171Z,17.80
2023-03-05T07:41:27.068Z,21.63
2023-03-05T07:43:56.013Z,18.07
2023-03-05T07:46:26.416Z,18.30
2023-03-05T07:48:56.645Z,20.23
2023-03-05T07:51:25.898Z,18.80
2023-03-05T07:53:55.226Z,20.77
2023-03-05T07:56:24.573Z,21.73
2023-03-05T07:58:52.518Z,17.83
2023-03-05T08:01:20.703Z,19.73
2023-03-05T08:03:48.595Z,18.57
2023-03-05T08:06:18.244Z,17.73
2023-03-05T08:08:46.042Z,16.40
2023-03-05T08:11:15.406Z,21.47
2023-03-05T08:13:44.200Z,19.77
2023-03-05T08:16:15.770Z,15.47
2023-03-05T08:18:43.777Z,18.10
2023-03-05T08:21:19.168Z,21.00
2023-03-05T08:23:47.462Z,22.23
2023-03-05T08:26:16.653Z,23.10
2023-03-05T08:28:44.505Z,20.40
2023-03-05T08:31:13.180Z,17.13
2023-03-05T08:33:41.664Z,19.47
2023-03-05T08:36:10.042Z,20.57
2023-03-05T08:38:39.294Z,19.77
2023-03-05T08:41:08.731Z,17.97
2023-03-05T08:43:36.547Z,20.07
2023-03-05T08:46:04.995Z,17.83
2023-03-05T08:48:33.350Z,20.57
2023-03-05T08:51:06.535Z,17.73
2023-03-05T08:53:34.366Z,22.47
2023-03-05T08:56:03.653Z,15.47
2023-03-05T08:58:31.677Z,16.30
2023-03-05T09:00:59.758Z,22.40
2023-03-05T09:03:27.972Z,15.57
2023-03-05T09:06:00.508Z,20.77
2023-03-05T09:08:28.956Z,19.30
2023-03-05T09:10:56.808Z,21.27
2023-03-05T09:13:26.000Z,18.73
2023-03-05T09:15:57.677Z,17.73
2023-03-05T09:18:25.897Z,19.13
2023-03-05T09:20:54.014Z,18.67
2023-03-05T09:23:22.271Z,22.80
2023-03-05T09:25:50.105Z,21.27
2023-03-05T09:28:18.342Z,20.37
2023-03-05T09:30:47.587Z,16.63
2023-03-05T09:33:15.438Z,17.50
2023-03-05T09:35:43.284Z,20.17
2023-03-05T09:38:11.111Z,19.07
2023-03-05T09:40:46.733Z,18.83
2023-03-05T09:43:26.762Z,17.33
2023-03-05T09:46:08.319Z,21.00
2023-03-05T09:48:49.433Z,18.27
2023-03-05T09:51:23.209Z,19.60
2023-03-05T09:53:57.033Z,20.97
2023-03-05T09:56:28.857Z,15.87
2023-03-05T09:59:03.519Z,22.23
2023-03-05T10:01:39.789Z,18.80
2023-03-05T10:04:12.985Z,17.07
2023-03-05T10:06:49.758Z,19.57
2023-03-05T10:09:24.939Z,16.93
2023-03-05T10:11:57.065Z,18.37
2023-03-05T10:14:28.807Z,14.00
2023-03-05T10:17:31.889Z,14.47
2023-03-05T10:20:24.116Z,17.90
2023-03-05T10:23:05.259Z,14.30
2023-03-05T10:25:47.940Z,17.90
2023-03-05T10:28:20.125Z,16.70
2023-03-05T10:31:03.929Z,17.67
2023-03-05T10:33:41.270Z,24.03
2023-03-05T10:36:46.809Z,23.17
2023-03-05T10:39:43.165Z,22.07
2023-03-05T10:42:21.228Z,17.30
2023-03-05T10:44:52.910Z,20.10
2023-03-05T10:47:26.452Z,20.10
2023-03-05T10:49:57.177Z,15.03
2023-03-05T10:52:32.137Z,19.97
2023-03-05T10:54:59.958Z,17.20
2023-03-05T10:57:29.384Z,16.27
2023-03-05T11:00:02.798Z,24.93
2023-03-05T11:02:30.628Z,14.60
2023-03-05T11:04:59.984Z,16.53
2023-03-05T11:07:35.208Z,17.00
2023-03-05T11:10:06.918Z,13.47
2023-03-05T11:12:37.413Z,16.10
2023-03-05T11:15:22.641Z,17.13
2023-03-05T11:18:07.999Z,14.57
2023-03-05T11:20:39.834Z,13.40
2023-03-05T11:23:13.216Z,15.10
2023-03-05T11:26:03.114Z,14.47
2023-03-05T11:28:35.439Z,15.50
2023-03-05T11:31:08.427Z,14.80
2023-03-05T11:33:38.048Z,14.47
2023-03-05T11:36:21.792Z,15.90
2023-03-05T11:38:54.550Z,15.83
2023-03-05T11:41:28.327Z,11.37
2023-03-05T11:43:57.678Z,12.57
2023-03-05T11:46:26.804Z,14.27
2023-03-05T11:48:55.753Z,14.27
2023-03-05T11:51:31.846Z,13.47
2023-03-05T11:54:07.078Z,15.93
2023-03-05T11:56:39.253Z,13.10
2023-03-05T11:59:15.866Z,12.30
2023-03-05T12:01:46.590Z,12.57
2023-03-05T12:04:14.945Z,14.47
2023-03-05T12:06:48.066Z,14.33
2023-03-05T12:09:24.765Z,13.83
2023-03-05T12:11:58.895Z,11.50
2023-03-05T12:14:31.099Z,13.97
2023-03-05T12:17:08.802Z,10.67
2023-03-05T12:19:48.905Z,9.47
2023-03-05T12:22:21.936Z,10.83
2023-03-05T12:24:50.308Z,10.50
2023-03-05T12:27:33.390Z,12.67
2023-03-05T12:30:02.421Z,12.47
2023-03-05T12:33:00.818Z,11.73
2023-03-05T12:35:32.308Z,11.33
2023-03-05T12:38:29.063Z,9.67
2023-03-05T12:41:37.539Z,11.83
2023-03-05T12:44:26.173Z,8.73
2023-03-05T12:47:17.687Z,12.83
2023-03-05T12:49:48.289Z,35.40
2023-03-05T12:52:27.358Z,21.17
2023-03-05T12:55:04.704Z,47.63
2023-03-05T12:57:32.940Z,32.77
2023-03-05T13:00:05.506Z,40.20
2023-03-05T13:02:36.735Z,48.37
2023-03-05T13:05:08.643Z,36.33
2023-03-05T13:07:36.593Z,41.73
2023-03-05T13:10:06.573Z,15.13
2023-03-05T13:12:36.456Z,14.10
2023-03-05T13:15:05.790Z,10.17
2023-03-05T13:17:38.155Z,9.70
2023-03-05T13:20:27.419Z,10.57
2023-03-05T13:23:18.228Z,10.67
2023-03-05T13:25:59.618Z,13.13
2023-03-05T13:28:28.266Z,11.13
2023-03-05T13:30:58.943Z,10.03
2023-03-05T13:33:29.271Z,10.70
2023-03-05T13:35:57.465Z,9.97
2023-03-05T13:38:30.820Z,10.73
2023-03-05T13:41:19.464Z,13.43
2023-03-05T13:43:49.316Z,29.23
2023-03-05T13:46:25.748Z,10.40
2023-03-05T13:48:53.651Z,7.87
2023-03-05T13:51:21.426Z,7.90
2023-03-05T13:53:50.064Z,7.83
2023-03-05T13:56:21.168Z,15.47
2023-03-05T13:58:52.382Z,9.17
2023-03-05T14:01:30.132Z,10.10
2023-03-05T14:04:00.657Z,9.30
2023-03-05T14:06:30.858Z,13.53
2023-03-05T14:09:05.802Z,11.43
2023-03-05T14:11:35.583Z,9.63
2023-03-05T14:14:10.628Z,11.77
2023-03-05T14:16:38.478Z,9.53
2023-03-05T14:19:09.091Z,9.07
2023-03-05T14:21:48.151Z,11.07
2023-03-05T14:24:22.805Z,10.53
2023-03-05T14:26:56.486Z,11.73
2023-03-05T14:29:26.586Z,10.10
2023-03-05T14:31:56.507Z,11.80
2023-03-05T14:34:28.839Z,10.20
2023-03-05T14:36:59.739Z,9.87
2023-03-05T14:39:33.402Z,9.60
2023-03-05T14:42:30.821Z,11.87
2023-03-05T14:45:00.788Z,10.33
2023-03-05T14:47:29.556Z,9.00
2023-03-05T14:49:57.390Z,10.07
2023-03-05T14:52:26.605Z,10.20
2023-03-05T14:54:55.893Z,10.97
2023-03-05T14:57:27.388Z,11.97
2023-03-05T14:59:55.755Z,11.67
2023-03-05T15:02:25.952Z,11.90
2023-03-05T15:04:53.912Z,8.27
2023-03-05T15:07:24.585Z,12.57
2023-03-05T15:09:52.481Z,10.27
2023-03-05T15:12:24.459Z,11.10
2023-03-05T15:14:54.636Z,7.93
2023-03-05T15:17:26.857Z,9.33
2023-03-05T15:19:54.740Z,8.90
2023-03-05T15:22:22.512Z,11.83
2023-03-05T15:24:50.416Z,9.83
2023-03-05T15:27:18.250Z,8.93
2023-03-05T15:29:46.115Z,11.90
2023-03-05T15:32:15.290Z,14.93
2023-03-05T15:34:43.256Z,10.70
2023-03-05T15:37:11.189Z,10.73
2023-03-05T15:39:38.990Z,10.80
2023-03-05T15:42:07.102Z,11.53
2023-03-05T15:44:34.982Z,9.00
2023-03-05T15:47:02.791Z,11.33
2023-03-05T15:49:31.942Z,9.83
2023-03-05T15:51:59.982Z,11.37
2023-03-05T15:54:28.295Z,12.83
2023-03-05T15:56:56.129Z,12.27
2023-03-05T15:59:23.932Z,13.63
2023-03-05T16:01:53.317Z,14.30
2023-03-05T16:04:21.148Z,12.87
2023-03-05T16:06:51.376Z,14.43
2023-03-05T16:09:21.725Z,12.47
2023-03-05T16:11:51.417Z,14.50
2023-03-05T16:14:23.068Z,14.83
2023-03-05T16:16:51.720Z,16.67
2023-03-05T16:19:20.535Z,17.10
2023-03-05T16:21:50.082Z,14.43
2023-03-05T16:24:17.877Z,16.63
2023-03-05T16:26:45.940Z,17.30
2023-03-05T16:29:13.788Z,15.10
2023-03-05T16:31:43.258Z,14.90
2023-03-05T16:34:13.941Z,16.73
2023-03-05T16:36:42.406Z,19.73
2023-03-05T16:39:11.544Z,19.13
2023-03-05T16:41:39.384Z,18.40
2023-03-05T16:44:07.422Z,17.50
2023-03-05T16:46:35.383Z,18.90
2023-03-05T16:49:03.512Z,22.07
2023-03-05T16:51:31.361Z,18.77
2023-03-05T16:53:59.157Z,16.27
2023-03-05T16:56:28.348Z,17.87
2023-03-05T16:58:57.028Z,20.97
2023-03-05T17:01:25.409Z,17.73
2023-03-05T17:03:53.793Z,21.20
2023-03-05T17:06:24.454Z,17.70
2023-03-05T17:08:53.291Z,19.23
2023-03-05T17:11:21.694Z,20.97
2023-03-05T17:13:50.882Z,17.60
2023-03-05T17:16:20.042Z,24.67
2023-03-05T17:18:48.093Z,20.97
2023-03-05T17:21:16.609Z,19.93
2023-03-05T17:23:44.418Z,19.77
2023-03-05T17:26:14.224Z,22.80
2023-03-05T17:28:42.338Z,20.10
2023-03-05T17:31:12.671Z,18.47
2023-03-05T17:33:41.450Z,17.83
2023-03-05T17:36:14.698Z,18.43
2023-03-05T17:38:42.505Z,15.40
2023-03-05T17:41:10.431Z,19.60
2023-03-05T17:43:38.279Z,26.30
2023-03-05T17:46:06.907Z,22.63
2023-03-05T17:48:38.834Z,22.17
2023-03-05T17:51:07.392Z,22.03
2023-03-05T17:53:36.098Z,18.90
2023-03-05T17:56:07.748Z,18.93
2023-03-05T17:58:35.589Z,21.03
2023-03-05T18:01:03.797Z,22.30
2023-03-05T18:03:31.696Z,24.10
2023-03-05T18:06:01.021Z,25.20
2023-03-05T18:08:28.970Z,23.93
2023-03-05T18:11:02.108Z,21.17
2023-03-05T18:13:29.915Z,25.77
2023-03-05T18:15:59.511Z,24.70
2023-03-05T18:18:28.022Z,22.90
2023-03-05T18:20:56.109Z,23.17
2023-03-05T18:23:25.278Z,22.13
2023-03-05T18:25:53.128Z,24.00
2023-03-05T18:28:23.329Z,23.13
2023-03-05T18:30:51.209Z,19.80
2023-03-05T18:33:22.212Z,21.47
2023-03-05T18:35:52.338Z,19.63
2023-03-05T18:38:20.467Z,22.23
2023-03-05T18:40:51.269Z,28.67
2023-03-05T18:43:20.425Z,27.60
2023-03-05T18:45:48.901Z,21.43
2023-03-05T18:48:16.885Z,19.10
2023-03-05T18:50:45.061Z,15.97
2023-03-05T18:53:13.908Z,16.47
2023-03-05T18:55:42.795Z,24.53
2023-03-05T18:58:14.108Z,23.10
2023-03-05T19:00:43.697Z,18.47
2023-03-05T19:03:11.987Z,17.40
2023-03-05T19:05:40.256Z,19.97
2023-03-05T19:08:08.508Z,19.03
2023-03-05T19:10:36.393Z,19.27
2023-03-05T19:13:15.752Z,22.13
2023-03-05T19:15:45.135Z,23.43
2023-03-05T19:18:13.125Z,24.03
2023-03-05T19:20:41.002Z,24.37
2023-03-05T19:23:08.842Z,21.30
2023-03-05T19:25:36.720Z,27.77
2023-03-05T19:28:04.603Z,24.63
2023-03-05T19:30:32.612Z,22.67
2023-03-05T19:33:03.693Z,23.33
2023-03-05T19:35:31.577Z,27.33
2023-03-05T19:37:59.602Z,24.57
2023-03-05T19:40:27.628Z,24.30
2023-03-05T19:42:55.556Z,28.60
2023-03-05T19:45:23.368Z,27.13
2023-03-05T19:47:51.291Z,30.80
2023-03-05T19:50:20.728Z,28.17
2023-03-05T19:52:48.546Z,24.17
2023-03-05T19:55:16.480Z,22.53
2023-03-05T19:57:44.323Z,21.43
2023-03-05T20:00:13.288Z,18.53
2023-03-05T20:02:41.092Z,19.83
2023-03-05T20:05:09.708Z,22.37
2023-03-05T20:07:38.950Z,25.23
2023-03-05T20:10:07.691Z,28.03
2023-03-05T20:12:39.165Z,28.23
2023-03-05T20:15:07.816Z,25.43
2023-03-05T20:17:35.671Z,25.13
2023-03-05T20:20:03.532Z,26.43
2023-03-05T20:22:31.382Z,19.77
2023-03-05T20:25:00.572Z,25.33
2023-03-05T20:27:28.434Z,27.60
2023-03-05T20:29:56.270Z,26.97
2023-03-05T20:32:24.288Z,27.67
2023-03-05T20:34:52.147Z,24.90
2023-03-05T20:37:19.939Z,25.83
2023-03-05T20:39:47.774Z,31.30
2023-03-05T20:42:16.924Z,25.17
2023-03-05T20:44:45.200Z,24.23
2023-03-05T20:47:26.063Z,26.47
2023-03-05T20:49:55.743Z,22.47
2023-03-05T20:52:23.579Z,27.03
2023-03-05T20:54:51.415Z,25.43
2023-03-05T20:57:20.673Z,29.43
2023-03-05T20:59:48.475Z,35.53
2023-03-05T21:02:18.212Z,25.17
2023-03-05T21:04:46.137Z,30.03
2023-03-05T21:07:14.051Z,24.23
2023-03-05T21:09:41.852Z,21.33
2023-03-05T21:12:10.088Z,20.93
2023-03-05T21:14:40.711Z,22.67
2023-03-05T21:17:09.205Z,25.07
2023-03-05T21:19:38.876Z,22.93
2023-03-05T21:22:06.740Z,23.13
2023-03-05T21:24:45.530Z,20.80
2023-03-05T21:27:13.341Z,24.57
2023-03-05T21:29:42.606Z,22.63
2023-03-05T21:32:10.559Z,22.57
2023-03-05T21:34:38.361Z,23.47
2023-03-05T21:37:06.163Z,20.77
2023-03-05T21:39:33.965Z,20.90
2023-03-05T21:42:01.768Z,22.70
2023-03-05T21:44:29.589Z,26.13
2023-03-05T21:46:58.754Z,24.80
2023-03-05T21:49:26.570Z,24.87
2023-03-05T21:52:05.388Z,24.03
2023-03-05T21:54:33.220Z,21.60
2023-03-05T21:57:01.051Z,20.83
2023-03-05T21:59:29.102Z,23.40
2023-03-05T22:01:58.335Z,17.53
2023-03-05T22:04:26.501Z,23.33
2023-03-05T22:06:54.366Z,16.63
2023-03-05T22:09:22.160Z,19.63
2023-03-05T22:11:49.995Z,20.20
2023-03-05T22:14:18.138Z,22.23
2023-03-05T22:16:46.104Z,17.60
2023-03-05T22:19:15.260Z,20.33
2023-03-05T22:21:43.165Z,22.73
2023-03-05T22:24:10.995Z,20.53
2023-03-05T22:26:40.871Z,16.67
2023-03-05T22:29:11.584Z,16.90
2023-03-05T22:31:40.517Z,16.90
2023-03-05T22:34:08.360Z,14.27
2023-03-05T22:36:37.832Z,14.93
2023-03-05T22:39:05.946Z,15.83
2023-03-05T22:41:33.815Z,17.33
2023-03-05T22:44:01.618Z,15.40
2023-03-05T22:46:29.483Z,15.73
2023-03-05T22:48:57.359Z,16.40
2023-03-05T22:51:25.394Z,16.77
2023-03-05T22:53:54.584Z,15.50
2023-03-05T22:56:22.787Z,22.27
2023-03-05T22:58:50.637Z,20.60
2023-03-05T23:01:21.141Z,25.10
2023-03-05T23:03:53.207Z,24.67
2023-03-05T23:06:21.168Z,18.47
2023-03-05T23:08:49.134Z,14.23
2023-03-05T23:11:18.284Z,12.53
2023-03-05T23:13:46.332Z,15.40
2023-03-05T23:16:14.186Z,13.73
2023-03-05T23:18:42.058Z,11.60
2023-03-05T23:21:09.905Z,11.13
2023-03-05T23:23:38.093Z,13.77
2023-03-05T23:26:06.227Z,13.20
2023-03-05T23:28:35.410Z,11.10
2023-03-05T23:31:03.924Z,12.77
2023-03-05T23:33:31.781Z,12.43
2023-03-05T23:36:00.835Z,13.07
2023-03-05T23:38:30.371Z,12.93
2023-03-05T23:41:01.084Z,15.37
2023-03-05T23:43:29.968Z,15.53
2023-03-05T23:46:01.457Z,14.30
2023-03-05T23:48:30.341Z,17.33
2023-03-05T23:50:58.194Z,18.50
2023-03-05T23:53:28.726Z,13.73
2023-03-05T23:55:56.955Z,12.60
2023-03-05T23:58:24.856Z,15.53
